createdAt,value
2022-11-06T00:01:14.504Z,21.75
2022-11-06T00:03:43.433Z,22.40
2022-11-06T00:06:28.192Z,24.98
2022-11-06T00:08:54.411Z,23.27
2022-11-06T00:11:20.625Z,23.77
2022-11-06T00:13:52.284Z,23.98
2022-11-06T00:16:18.486Z,24.10
2022-11-06T00:18:44.672Z,27.60
2022-11-06T00:21:10.909Z,25.50
2022-11-06T00:23:37.135Z,23.33
2022-11-06T00:26:03.329Z,25.75
2022-11-06T00:28:29.537Z,24.40
2022-11-06T00:30:55.730Z,25.33
2022-11-06T00:33:21.909Z,22.85
2022-11-06T00:35:48.115Z,24.45
2022-11-06T00:38:14.656Z,22.23
2022-11-06T00:40:41.159Z,24.67
2022-11-06T00:43:07.346Z,21.65
2022-11-06T00:45:33.522Z,23.85
2022-11-06T00:47:59.942Z,24.63
2022-11-06T00:50:26.502Z,24.98
2022-11-06T00:52:53.305Z,24.17
2022-11-06T00:55:19.476Z,23.20
2022-11-06T00:57:45.656Z,23.35
2022-11-06T01:00:11.839Z,24.20
2022-11-06T01:02:38.424Z,23.98
2022-11-06T01:05:04.731Z,23.30
2022-11-06T01:07:30.926Z,23.88
2022-11-06T01:09:57.109Z,23.55
2022-11-06T01:12:23.334Z,26.13
2022-11-06T01:14:49.523Z,25.63
2022-11-06T01:17:15.742Z,23.80
2022-11-06T01:19:41.913Z,24.45
2022-11-06T01:22:08.108Z,24.00
2022-11-06T01:24:34.902Z,22.98
2022-11-06T01:29:47.343Z,26.17
2022-11-06T01:32:13.521Z,24.60
2022-11-06T01:34:39.730Z,23.60
2022-11-06T01:37:06.379Z,25.65
2022-11-06T01:39:34.410Z,26.77
2022-11-06T01:42:00.967Z,25.63
2022-11-06T01:44:27.149Z,27.38
2022-11-06T01:46:53.509Z,25.85
2022-11-06T01:49:19.703Z,23.17
2022-11-06T01:51:45.888Z,28.20
2022-11-06T01:54:12.166Z,24.92
2022-11-06T01:56:38.344Z,24.40
2022-11-06T01:59:04.526Z,24.92
2022-11-06T02:01:30.780Z,23.10
2022-11-06T02:03:57.062Z,24.17
2022-11-06T02:06:23.248Z,24.45
2022-11-06T02:08:49.431Z,25.00
2022-11-06T02:11:15.642Z,24.52
2022-11-06T02:13:41.846Z,27.98
2022-11-06T02:16:09.544Z,23.42
2022-11-06T02:18:36.011Z,22.98
2022-11-06T02:21:02.192Z,25.40
2022-11-06T02:23:28.402Z,21.77
2022-11-06T02:25:54.823Z,24.48
2022-11-06T02:28:21.009Z,26.55
2022-11-06T02:30:47.189Z,24.85
2022-11-06T02:33:13.369Z,25.60
2022-11-06T02:35:39.594Z,28.20
2022-11-06T02:38:05.784Z,25.50
2022-11-06T02:40:33.130Z,25.23
2022-11-06T02:42:59.387Z,24.52
2022-11-06T02:45:25.578Z,25.17
2022-11-06T02:47:51.809Z,24.95
2022-11-06T02:50:18.005Z,23.48
2022-11-06T02:52:44.220Z,25.98
2022-11-06T02:55:10.401Z,25.55
2022-11-06T02:57:36.740Z,23.33
2022-11-06T03:00:03.060Z,22.27
2022-11-06T03:02:29.285Z,24.77
2022-11-06T03:04:55.574Z,24.95
2022-11-06T03:07:21.767Z,26.70
2022-11-06T03:09:47.955Z,29.42
2022-11-06T03:12:14.132Z,26.70
2022-11-06T03:14:40.322Z,24.33
2022-11-06T03:17:06.507Z,23.27
2022-11-06T03:19:32.684Z,23.63
2022-11-06T03:21:58.923Z,24.05
2022-11-06T03:24:30.898Z,23.48
2022-11-06T03:26:57.488Z,26.48
2022-11-06T03:29:23.706Z,24.02
2022-11-06T03:31:49.902Z,23.65
2022-11-06T03:34:16.090Z,25.50
2022-11-06T03:36:42.287Z,24.92
2022-11-06T03:39:08.461Z,25.23
2022-11-06T03:41:34.722Z,27.23
2022-11-06T03:44:00.953Z,28.23
2022-11-06T03:46:27.146Z,24.45
2022-11-06T03:48:53.399Z,26.35
2022-11-06T03:51:19.584Z,24.77
2022-11-06T03:53:45.792Z,26.38
2022-11-06T03:56:11.982Z,28.88
2022-11-06T03:58:38.208Z,27.60
2022-11-06T04:01:04.404Z,27.83
2022-11-06T04:03:30.590Z,28.63
2022-11-06T04:05:56.773Z,28.90
2022-11-06T04:08:41.922Z,28.10
2022-11-06T04:11:26.667Z,28.77
2022-11-06T04:14:00.748Z,31.90
2022-11-06T04:16:26.969Z,28.52
2022-11-06T04:18:53.146Z,28.58
2022-11-06T04:21:22.370Z,29.33
2022-11-06T04:24:08.505Z,29.63
2022-11-06T04:26:37.466Z,29.73
2022-11-06T04:29:03.656Z,26.00
2022-11-06T04:31:29.899Z,26.10
2022-11-06T04:33:56.079Z,28.00
2022-11-06T04:36:22.258Z,27.90
2022-11-06T04:38:48.443Z,29.17
2022-11-06T04:41:14.654Z,29.25
2022-11-06T04:43:40.976Z,29.63
2022-11-06T04:46:07.153Z,29.02
2022-11-06T04:48:33.332Z,28.17
2022-11-06T04:50:59.529Z,31.58
2022-11-06T04:53:25.749Z,31.77
2022-11-06T04:55:51.958Z,30.13
2022-11-06T04:58:18.147Z,29.60
2022-11-06T05:00:44.372Z,27.00
2022-11-06T05:03:10.568Z,30.58
2022-11-06T05:05:36.760Z,30.15
2022-11-06T05:08:02.943Z,29.30
2022-11-06T05:10:29.148Z,29.50
2022-11-06T05:12:55.339Z,29.35
2022-11-06T05:15:21.528Z,32.35
2022-11-06T05:17:47.833Z,32.78
2022-11-06T05:20:14.008Z,33.28
2022-11-06T05:22:58.798Z,29.13
2022-11-06T05:25:24.981Z,31.35
2022-11-06T05:27:51.199Z,33.47
2022-11-06T05:30:17.392Z,32.67
2022-11-06T05:32:43.581Z,35.30
2022-11-06T05:35:09.783Z,31.90
2022-11-06T05:37:35.962Z,35.28
2022-11-06T05:40:02.284Z,33.20
2022-11-06T05:42:28.464Z,33.42
2022-11-06T05:44:54.788Z,32.25
2022-11-06T05:47:20.978Z,34.22
2022-11-06T05:49:47.171Z,30.38
2022-11-06T05:52:13.358Z,33.53
2022-11-06T05:54:39.532Z,33.17
2022-11-06T05:57:05.733Z,28.35
2022-11-06T05:59:31.936Z,31.20
2022-11-06T06:01:59.539Z,31.17
2022-11-06T06:04:25.898Z,29.92
2022-11-06T06:06:52.079Z,30.50
2022-11-06T06:09:18.273Z,33.38
2022-11-06T06:11:44.453Z,32.83
2022-11-06T06:14:10.630Z,30.35
2022-11-06T06:16:36.839Z,30.98
2022-11-06T06:19:03.041Z,34.22
2022-11-06T06:21:29.298Z,31.42
2022-11-06T06:23:55.506Z,31.92
2022-11-06T06:26:21.988Z,32.30
2022-11-06T06:28:48.520Z,34.15
2022-11-06T06:31:14.698Z,32.08
2022-11-06T06:33:40.909Z,29.40
2022-11-06T06:36:07.100Z,32.03
2022-11-06T06:41:23.421Z,29.60
2022-11-06T06:43:49.649Z,32.35
2022-11-06T06:46:15.842Z,30.80
2022-11-06T06:48:42.184Z,31.13
2022-11-06T06:51:08.373Z,28.10
2022-11-06T06:53:34.579Z,28.52
2022-11-06T06:56:00.884Z,32.80
2022-11-06T06:58:27.218Z,31.05
2022-11-06T07:00:53.487Z,31.80
2022-11-06T07:03:19.705Z,31.05
2022-11-06T07:05:46.750Z,32.22
2022-11-06T07:08:13.305Z,34.72
2022-11-06T07:10:39.961Z,34.05
2022-11-06T07:13:06.153Z,32.90
2022-11-06T07:15:32.347Z,34.00
2022-11-06T07:17:58.538Z,28.92
2022-11-06T07:20:24.732Z,27.25
2022-11-06T07:22:50.917Z,30.20
2022-11-06T07:25:17.110Z,25.65
2022-11-06T07:27:43.304Z,25.02
2022-11-06T07:30:09.541Z,27.45
2022-11-06T07:32:35.872Z,29.30
2022-11-06T07:35:02.051Z,27.40
2022-11-06T07:37:28.386Z,27.40
2022-11-06T07:39:54.619Z,27.92
2022-11-06T07:42:20.829Z,26.95
2022-11-06T07:44:47.014Z,27.10
2022-11-06T07:47:13.233Z,26.58
2022-11-06T07:49:39.417Z,25.05
2022-11-06T07:52:05.619Z,29.15
2022-11-06T07:54:31.805Z,27.33
2022-11-06T07:56:57.994Z,25.55
2022-11-06T07:59:24.177Z,26.83
2022-11-06T08:01:50.534Z,25.48
2022-11-06T08:04:16.788Z,25.92
2022-11-06T08:06:42.969Z,25.13
2022-11-06T08:09:09.158Z,27.25
2022-11-06T08:11:35.367Z,27.13
2022-11-06T08:14:01.555Z,26.25
2022-11-06T08:16:27.746Z,27.10
2022-11-06T08:18:53.942Z,27.27
2022-11-06T08:21:20.153Z,26.85
2022-11-06T08:23:46.328Z,25.58
2022-11-06T08:26:12.560Z,24.48
2022-11-06T08:28:38.783Z,26.52
2022-11-06T08:31:05.053Z,26.17
2022-11-06T08:33:31.270Z,25.38
2022-11-06T08:35:57.457Z,23.90
2022-11-06T08:38:26.630Z,26.05
2022-11-06T08:40:53.987Z,24.23
2022-11-06T08:43:20.336Z,21.63
2022-11-06T08:45:46.517Z,25.60
2022-11-06T08:48:12.703Z,25.92
2022-11-06T08:50:38.934Z,27.48
2022-11-06T08:53:06.220Z,24.83
2022-11-06T08:55:32.432Z,24.33
2022-11-06T08:57:58.621Z,25.95
2022-11-06T09:00:24.826Z,25.38
2022-11-06T09:02:51.247Z,27.00
2022-11-06T09:05:17.444Z,24.95
2022-11-06T09:07:43.635Z,24.25
2022-11-06T09:10:09.823Z,24.65
2022-11-06T09:12:36.018Z,27.13
2022-11-06T09:15:02.245Z,27.55
2022-11-06T09:17:28.417Z,23.10
2022-11-06T09:19:54.617Z,22.65
2022-11-06T09:22:20.875Z,26.70
2022-11-06T09:25:03.153Z,22.08
2022-11-06T09:27:30.535Z,33.20
2022-11-06T09:29:56.799Z,23.83
2022-11-06T09:35:27.370Z,24.65
2022-11-06T09:37:53.651Z,20.50
2022-11-06T09:40:20.178Z,21.55
2022-11-06T09:42:46.601Z,26.40
2022-11-06T09:45:12.926Z,27.45
2022-11-06T09:47:39.205Z,24.38
2022-11-06T09:50:05.462Z,27.35
2022-11-06T09:52:31.773Z,25.80
2022-11-06T09:55:00.735Z,27.15
2022-11-06T09:57:27.862Z,26.10
2022-11-06T09:59:54.127Z,26.85
2022-11-06T10:02:20.486Z,23.98
2022-11-06T10:04:47.168Z,24.05
2022-11-06T10:07:13.424Z,25.15
2022-11-06T10:09:39.669Z,24.02
2022-11-06T10:12:05.945Z,27.48
2022-11-06T10:14:32.199Z,22.83
2022-11-06T10:16:58.454Z,23.58
2022-11-06T10:19:24.815Z,25.35
2022-11-06T10:21:51.146Z,24.73
2022-11-06T10:24:17.396Z,19.92
2022-11-06T10:26:43.658Z,20.35
2022-11-06T10:29:09.916Z,20.70
2022-11-06T10:31:36.587Z,18.90
2022-11-06T10:34:02.838Z,19.90
2022-11-06T10:36:29.119Z,19.60
2022-11-06T10:38:55.371Z,18.70
2022-11-06T10:41:21.649Z,19.50
2022-11-06T10:43:47.906Z,20.50
2022-11-06T10:46:14.181Z,22.00
2022-11-06T10:48:41.725Z,19.20
2022-11-06T10:51:08.155Z,17.58
2022-11-06T10:53:34.410Z,17.85
2022-11-06T10:56:00.662Z,16.15
2022-11-06T10:58:26.918Z,16.50
2022-11-06T11:00:53.240Z,19.85
2022-11-06T11:03:19.725Z,19.50
2022-11-06T11:05:46.018Z,21.88
2022-11-06T11:08:12.461Z,21.33
2022-11-06T11:10:42.564Z,20.50
2022-11-06T11:13:09.168Z,19.52
2022-11-06T11:15:37.714Z,15.65
2022-11-06T11:18:04.092Z,19.35
2022-11-06T11:20:30.355Z,19.10
2022-11-06T11:22:56.824Z,18.80
2022-11-06T11:25:23.125Z,18.83
2022-11-06T11:27:49.387Z,20.80
2022-11-06T11:30:15.653Z,21.33
2022-11-06T11:32:41.928Z,20.70
2022-11-06T11:35:08.184Z,20.42
2022-11-06T11:37:36.016Z,19.92
2022-11-06T11:40:02.300Z,20.73
2022-11-06T11:42:28.667Z,21.42
2022-11-06T11:44:54.924Z,20.05
2022-11-06T11:47:21.221Z,18.77
2022-11-06T11:49:47.476Z,19.25
2022-11-06T11:52:13.734Z,20.02
2022-11-06T11:54:40.401Z,17.90
2022-11-06T11:57:07.541Z,18.35
2022-11-06T11:59:33.964Z,18.77
2022-11-06T12:02:00.320Z,19.65
2022-11-06T12:04:26.696Z,19.15
2022-11-06T12:06:52.965Z,19.42
2022-11-06T12:09:19.224Z,19.27
2022-11-06T12:11:45.636Z,18.77
2022-11-06T12:14:11.900Z,18.23
2022-11-06T12:16:38.476Z,20.55
2022-11-06T12:19:04.748Z,19.13
2022-11-06T12:21:31.058Z,18.65
2022-11-06T12:23:57.322Z,17.63
2022-11-06T12:26:23.678Z,19.98
2022-11-06T12:28:49.940Z,23.70
2022-11-06T12:31:16.218Z,20.17
2022-11-06T12:34:09.911Z,18.95
2022-11-06T12:36:28.735Z,19.38
2022-11-06T12:38:54.999Z,18.33
2022-11-06T12:41:21.256Z,18.42
2022-11-06T12:43:47.748Z,19.77
2022-11-06T12:46:14.030Z,16.63
2022-11-06T12:48:40.340Z,16.55
2022-11-06T12:51:06.631Z,17.15
2022-11-06T12:53:32.890Z,17.70
2022-11-06T12:55:59.285Z,19.55
2022-11-06T12:58:25.541Z,19.77
2022-11-06T13:00:51.851Z,21.17
2022-11-06T13:03:18.216Z,16.83
2022-11-06T13:05:44.497Z,18.58
2022-11-06T13:08:10.872Z,16.20
2022-11-06T13:10:37.315Z,17.40
2022-11-06T13:13:03.578Z,19.52
2022-11-06T13:15:29.820Z,18.30
2022-11-06T13:17:56.067Z,18.30
2022-11-06T13:20:22.451Z,18.90
2022-11-06T13:22:48.713Z,17.42
2022-11-06T13:25:14.986Z,17.60
2022-11-06T13:27:41.302Z,17.83
2022-11-06T13:30:07.571Z,17.48
2022-11-06T13:32:34.029Z,19.88
2022-11-06T13:35:00.293Z,18.30
2022-11-06T13:37:26.822Z,16.83
2022-11-06T13:39:53.073Z,18.42
2022-11-06T13:42:19.340Z,18.13
2022-11-06T13:44:45.592Z,19.85
2022-11-06T13:47:11.845Z,17.98
2022-11-06T13:49:38.106Z,18.95
2022-11-06T13:52:04.362Z,19.40
2022-11-06T13:54:30.975Z,18.80
2022-11-06T13:56:57.248Z,20.48
2022-11-06T13:59:24.051Z,19.02
2022-11-06T14:01:51.063Z,22.20
2022-11-06T14:04:17.425Z,20.95
2022-11-06T14:06:43.686Z,19.40
2022-11-06T14:09:09.946Z,19.33
2022-11-06T14:11:36.208Z,22.40
2022-11-06T14:14:02.527Z,19.40
2022-11-06T14:16:28.784Z,23.38
2022-11-06T14:18:55.230Z,22.38
2022-11-06T14:21:21.504Z,21.27
2022-11-06T14:23:47.793Z,19.92
2022-11-06T14:26:14.151Z,21.02
2022-11-06T14:28:40.441Z,27.80
2022-11-06T14:31:15.699Z,20.58
2022-11-06T14:33:43.494Z,19.33
2022-11-06T14:36:09.793Z,19.52
2022-11-06T14:38:36.065Z,21.60
2022-11-06T14:41:02.309Z,20.63
2022-11-06T14:43:28.650Z,21.10
2022-11-06T14:45:54.910Z,20.95
2022-11-06T14:48:21.395Z,21.60
2022-11-06T14:50:47.899Z,23.10
2022-11-06T14:53:14.153Z,20.70
2022-11-06T14:55:40.467Z,22.02
2022-11-06T14:58:06.770Z,20.98
2022-11-06T15:00:33.025Z,19.55
2022-11-06T15:02:59.276Z,20.15
2022-11-06T15:05:25.534Z,22.70
2022-11-06T15:08:07.820Z,22.25
2022-11-06T15:10:34.135Z,22.35
2022-11-06T15:13:00.478Z,26.52
2022-11-06T15:15:26.748Z,21.67
2022-11-06T15:17:53.005Z,23.27
2022-11-06T15:20:21.200Z,23.75
2022-11-06T15:22:47.492Z,23.17
2022-11-06T15:25:13.789Z,26.15
2022-11-06T15:27:43.031Z,22.35
2022-11-06T15:30:09.621Z,22.23
2022-11-06T15:32:35.903Z,24.55
2022-11-06T15:35:02.153Z,43.90
2022-11-06T15:37:28.409Z,23.65
2022-11-06T15:40:00.320Z,22.35
2022-11-06T15:42:27.057Z,21.30
2022-11-06T15:44:53.312Z,23.80
2022-11-06T15:47:19.888Z,21.73
2022-11-06T15:49:46.133Z,24.65
2022-11-06T15:52:12.387Z,23.08
2022-11-06T15:54:38.657Z,25.73
2022-11-06T15:57:04.920Z,23.65
2022-11-06T15:59:31.243Z,24.98
2022-11-06T16:01:57.562Z,26.88
2022-11-06T16:04:24.076Z,22.02
2022-11-06T16:06:50.264Z,22.35
2022-11-06T16:09:16.982Z,26.23
2022-11-06T16:11:46.340Z,24.45
2022-11-06T16:14:12.592Z,22.88
2022-11-06T16:16:38.839Z,24.02
2022-11-06T16:19:05.024Z,21.73
2022-11-06T16:21:32.139Z,21.50
2022-11-06T16:23:58.381Z,25.23
2022-11-06T16:26:24.629Z,25.92
2022-11-06T16:28:50.936Z,26.27
2022-11-06T16:31:17.292Z,25.58
2022-11-06T16:33:43.490Z,24.73
2022-11-06T16:36:11.328Z,28.35
2022-11-06T16:38:42.242Z,23.05
2022-11-06T16:41:08.643Z,25.42
2022-11-06T16:43:34.867Z,29.05
2022-11-06T16:46:05.216Z,31.35
2022-11-06T16:48:32.146Z,30.42
2022-11-06T16:50:59.529Z,29.08
2022-11-06T16:53:25.816Z,26.40
2022-11-06T16:55:52.011Z,25.05
2022-11-06T16:58:18.203Z,30.30
2022-11-06T17:00:44.438Z,30.88
2022-11-06T17:03:11.114Z,29.42
2022-11-06T17:05:37.395Z,30.90
2022-11-06T17:08:03.586Z,30.13
2022-11-06T17:10:29.800Z,32.03
2022-11-06T17:12:55.978Z,30.38
2022-11-06T17:15:25.314Z,33.17
2022-11-06T17:17:51.506Z,28.23
2022-11-06T17:20:17.702Z,30.85
2022-11-06T17:22:43.895Z,27.65
2022-11-06T17:25:10.116Z,30.48
2022-11-06T17:27:36.318Z,30.40
2022-11-06T17:30:02.550Z,31.27
2022-11-06T17:32:28.744Z,33.00
2022-11-06T17:34:54.939Z,28.23
2022-11-06T17:37:22.011Z,30.05
2022-11-06T17:39:48.348Z,30.37
2022-11-06T17:42:14.540Z,30.20
2022-11-06T17:44:40.802Z,31.55
2022-11-06T17:47:06.994Z,30.67
2022-11-06T17:49:33.173Z,31.35
2022-11-06T17:52:02.362Z,33.10
2022-11-06T17:54:28.586Z,27.77
2022-11-06T17:56:55.019Z,30.90
2022-11-06T17:59:21.275Z,33.50
2022-11-06T18:01:47.976Z,31.98
2022-11-06T18:04:14.297Z,31.42
2022-11-06T18:06:42.302Z,31.17
2022-11-06T18:09:08.591Z,31.42
2022-11-06T18:11:34.865Z,29.90
2022-11-06T18:14:01.272Z,31.23
2022-11-06T18:16:27.894Z,41.22
2022-11-06T18:18:54.126Z,32.42
2022-11-06T18:21:23.407Z,33.85
2022-11-06T18:23:49.659Z,46.30
2022-11-06T18:26:15.865Z,31.35
2022-11-06T18:28:42.044Z,33.40
2022-11-06T18:31:08.463Z,31.15
2022-11-06T18:36:25.019Z,35.60
2022-11-06T18:38:51.209Z,31.73
2022-11-06T18:41:17.407Z,30.00
2022-11-06T18:43:43.594Z,31.92
2022-11-06T18:46:09.787Z,38.08
2022-11-06T18:48:35.981Z,31.40
2022-11-06T18:51:02.260Z,31.27
2022-11-06T18:53:28.435Z,33.03
2022-11-06T18:55:54.620Z,29.13
2022-11-06T18:58:20.991Z,28.55
2022-11-06T19:00:48.292Z,29.65
2022-11-06T19:03:14.482Z,28.23
2022-11-06T19:05:40.686Z,35.15
2022-11-06T19:08:06.870Z,32.10
2022-11-06T19:10:33.076Z,31.45
2022-11-06T19:12:59.810Z,31.38
2022-11-06T19:15:26.301Z,24.45
2022-11-06T19:17:54.763Z,29.13
2022-11-06T19:20:21.106Z,30.95
2022-11-06T19:22:47.635Z,29.67
2022-11-06T19:25:13.829Z,28.00
2022-11-06T19:27:40.008Z,25.98
2022-11-06T19:30:06.235Z,25.83
2022-11-06T19:32:32.460Z,29.63
2022-11-06T19:34:58.975Z,26.33
2022-11-06T19:37:25.166Z,52.83
2022-11-06T19:39:53.245Z,31.20
2022-11-06T19:42:19.506Z,31.98
2022-11-06T19:44:45.694Z,28.33
2022-11-06T19:47:11.898Z,29.17
2022-11-06T19:49:38.098Z,29.50
2022-11-06T19:52:43.238Z,26.95
2022-11-06T19:54:50.490Z,27.95
2022-11-06T19:57:36.679Z,25.98
2022-11-06T20:00:07.173Z,28.77
2022-11-06T20:02:36.459Z,27.48
2022-11-06T20:05:02.729Z,27.00
2022-11-06T20:07:29.024Z,26.30
2022-11-06T20:09:57.222Z,28.77
2022-11-06T20:14:50.536Z,26.65
2022-11-06T20:17:18.091Z,27.20
2022-11-06T20:19:44.348Z,27.88
2022-11-06T20:22:10.732Z,26.00
2022-11-06T20:24:37.864Z,25.60
2022-11-06T20:27:07.359Z,27.88
2022-11-06T20:29:37.298Z,26.15
2022-11-06T20:32:03.539Z,26.10
2022-11-06T20:34:29.716Z,26.17
2022-11-06T20:36:56.243Z,24.77
2022-11-06T20:39:22.426Z,37.97
2022-11-06T20:41:48.797Z,24.52
2022-11-06T20:44:15.021Z,28.25
2022-11-06T20:46:41.286Z,25.83
2022-11-06T20:49:08.486Z,21.90
2022-11-06T20:51:48.241Z,25.02
2022-11-06T20:54:20.303Z,24.38
2022-11-06T20:56:48.360Z,27.92
2022-11-06T20:59:15.973Z,27.90
2022-11-06T21:01:42.956Z,29.60
2022-11-06T21:04:09.578Z,26.77
2022-11-06T21:06:38.721Z,25.23
2022-11-06T21:09:05.000Z,27.58
2022-11-06T21:11:31.195Z,29.45
2022-11-06T21:13:57.429Z,27.45
2022-11-06T21:16:24.256Z,24.75
2022-11-06T21:18:50.524Z,26.55
2022-11-06T21:21:16.832Z,27.58
2022-11-06T21:23:43.070Z,27.23
2022-11-06T21:26:09.246Z,26.08
2022-11-06T21:28:35.456Z,28.58
2022-11-06T21:31:01.649Z,27.63
2022-11-06T21:33:28.113Z,27.83
2022-11-06T21:35:54.332Z,24.27
2022-11-06T21:38:20.509Z,29.88
2022-11-06T21:40:46.700Z,26.10
2022-11-06T21:43:13.244Z,26.48
2022-11-06T22:00:14.185Z,26.40
2022-11-06T22:02:40.921Z,28.83
2022-11-06T22:05:07.234Z,28.40
2022-11-06T22:07:33.431Z,28.15
2022-11-06T22:09:59.628Z,26.83
2022-11-06T22:12:25.805Z,27.73
2022-11-06T22:14:52.209Z,25.20
2022-11-06T22:17:18.405Z,24.50
2022-11-06T22:19:45.001Z,23.85
2022-11-06T22:22:11.186Z,29.17
2022-11-06T22:24:39.197Z,24.50
2022-11-06T22:27:05.478Z,29.00
2022-11-06T22:29:31.656Z,26.45
2022-11-06T22:31:57.833Z,22.73
2022-11-06T22:34:24.013Z,24.52
2022-11-06T22:36:50.202Z,23.67
2022-11-06T22:39:16.455Z,25.80
2022-11-06T22:41:42.653Z,24.67
2022-11-06T22:44:09.033Z,27.30
2022-11-06T22:46:35.301Z,27.58
2022-11-06T22:49:01.830Z,23.70
2022-11-06T22:51:28.020Z,26.27
2022-11-06T22:53:54.351Z,23.23
2022-11-06T22:56:20.780Z,23.80
2022-11-06T22:58:46.970Z,23.52
2022-11-06T23:01:13.161Z,25.38
2022-11-06T23:03:39.662Z,26.40
2022-11-06T23:06:06.172Z,24.75
2022-11-06T23:08:32.789Z,21.70
2022-11-06T23:10:58.996Z,23.42
2022-11-06T23:13:25.184Z,22.05
2022-11-06T23:15:51.582Z,24.05
2022-11-06T23:18:17.778Z,24.60
2022-11-06T23:20:44.033Z,22.25
2022-11-06T23:23:10.350Z,24.98
2022-11-06T23:25:36.821Z,23.98
2022-11-06T23:28:03.006Z,24.70
2022-11-06T23:30:32.182Z,25.63
2022-11-06T23:32:58.367Z,26.83
2022-11-06T23:35:30.894Z,23.77
2022-11-06T23:37:58.596Z,22.90
2022-11-06T23:40:24.785Z,22.63
2022-11-06T23:42:51.027Z,22.65
2022-11-06T23:45:35.741Z,24.58
2022-11-06T23:48:07.468Z,23.15
2022-11-06T23:50:34.727Z,22.38
2022-11-06T23:53:00.917Z,21.55
2022-11-06T23:55:27.148Z,22.27
2022-11-06T23:57:53.343Z,22.00
